createdAt,value
2023-05-12T00:01:25.242Z,12.18
2023-05-12T00:03:53.836Z,13.93
2023-05-12T00:06:22.008Z,16.17
2023-05-12T00:08:49.787Z,15.73
2023-05-12T00:11:18.885Z,15.98
2023-05-12T00:13:46.713Z,21.58
2023-05-12T00:16:15.852Z,16.05
2023-05-12T00:18:43.661Z,19.65
2023-05-12T00:21:12.255Z,16.00
2023-05-12T00:23:40.090Z,14.23
2023-05-12T00:26:08.165Z,17.55
2023-05-12T00:28:37.270Z,14.15
2023-05-12T00:31:05.316Z,14.02
2023-05-12T00:33:33.141Z,17.98
2023-05-12T00:36:03.332Z,16.27
2023-05-12T00:38:31.134Z,15.98
2023-05-12T00:40:59.949Z,17.23
2023-05-12T00:43:27.688Z,16.27
2023-05-12T00:45:57.653Z,17.08
2023-05-12T00:48:25.608Z,16.38
2023-05-12T00:50:53.406Z,18.15
2023-05-12T00:53:21.125Z,18.30
2023-05-12T00:55:48.884Z,22.52
2023-05-12T00:58:16.863Z,17.77
2023-05-12T01:00:44.609Z,19.67
2023-05-12T01:03:14.100Z,16.73
2023-05-12T01:05:50.129Z,16.58
2023-05-12T01:10:46.130Z,15.52
2023-05-12T01:13:13.985Z,19.30
2023-05-12T01:15:47.618Z,18.40
2023-05-12T01:18:20.393Z,15.45
2023-05-12T01:20:49.174Z,15.60
2023-05-12T01:23:20.470Z,18.08
2023-05-12T01:25:51.044Z,17.63
2023-05-12T01:28:21.132Z,19.48
2023-05-12T01:30:49.942Z,16.90
2023-05-12T01:33:17.917Z,16.67
2023-05-12T01:35:45.759Z,17.77
2023-05-12T01:38:13.508Z,19.30
2023-05-12T01:40:41.240Z,15.05
2023-05-12T01:43:09.022Z,12.63
2023-05-12T01:45:38.587Z,13.90
2023-05-12T01:48:06.788Z,13.25
2023-05-12T01:50:34.566Z,13.10
2023-05-12T01:53:02.297Z,14.50
2023-05-12T01:55:29.973Z,13.70
2023-05-12T01:57:57.644Z,15.43
2023-05-12T02:00:25.526Z,25.90
2023-05-12T02:02:54.743Z,12.98
2023-05-12T02:05:22.473Z,12.80
2023-05-12T02:07:50.250Z,13.82
2023-05-12T02:10:18.552Z,13.25
2023-05-12T02:12:46.455Z,12.43
2023-05-12T02:15:14.210Z,12.52
2023-05-12T02:17:41.985Z,12.77
2023-05-12T02:20:12.892Z,13.73
2023-05-12T02:22:40.650Z,12.52
2023-05-12T02:25:09.185Z,14.55
2023-05-12T02:27:36.954Z,14.13
2023-05-12T02:30:05.301Z,15.88
2023-05-12T02:32:33.561Z,14.65
2023-05-12T02:35:01.473Z,16.13
2023-05-12T02:37:30.516Z,14.50
2023-05-12T02:39:58.283Z,14.52
2023-05-12T02:42:28.714Z,14.07
2023-05-12T02:44:56.431Z,15.80
2023-05-12T02:47:24.245Z,17.00
2023-05-12T02:49:52.026Z,14.35
2023-05-12T02:52:19.734Z,17.23
2023-05-12T02:54:48.775Z,16.33
2023-05-12T02:57:16.498Z,18.48
2023-05-12T02:59:44.261Z,16.50
2023-05-12T03:02:12.108Z,16.05
2023-05-12T03:04:40.029Z,16.40
2023-05-12T03:07:08.026Z,19.08
2023-05-12T03:09:35.762Z,15.77
2023-05-12T03:12:05.289Z,16.95
2023-05-12T03:14:33.088Z,21.08
2023-05-12T03:17:00.866Z,18.48
2023-05-12T03:19:28.687Z,17.10
2023-05-12T03:21:57.056Z,15.55
2023-05-12T03:24:24.880Z,14.18
2023-05-12T03:26:52.646Z,17.88
2023-05-12T03:29:21.837Z,14.32
2023-05-12T03:31:49.677Z,19.20
2023-05-12T03:34:17.479Z,14.98
2023-05-12T03:36:45.512Z,18.73
2023-05-12T03:39:13.237Z,17.58
2023-05-12T03:41:41.042Z,15.45
2023-05-12T03:44:09.924Z,13.55
2023-05-12T03:46:39.104Z,15.27
2023-05-12T03:49:06.915Z,13.68
2023-05-12T03:51:34.592Z,16.60
2023-05-12T03:54:02.294Z,13.55
2023-05-12T03:56:30.208Z,16.27
2023-05-12T03:58:58.346Z,16.83
2023-05-12T04:01:26.128Z,15.90
2023-05-12T04:03:55.340Z,16.45
2023-05-12T04:06:23.188Z,17.63
2023-05-12T04:08:50.907Z,18.33
2023-05-12T04:11:18.651Z,21.80
2023-05-12T04:13:46.386Z,21.02
2023-05-12T04:16:14.195Z,21.02
2023-05-12T04:18:42.108Z,19.48
2023-05-12T04:21:11.302Z,17.98
2023-05-12T04:23:40.311Z,16.20
2023-05-12T04:26:08.076Z,16.83
2023-05-12T04:28:36.872Z,17.92
2023-05-12T04:31:05.346Z,16.33
2023-05-12T04:33:33.078Z,15.90
2023-05-12T04:36:01.368Z,16.95
2023-05-12T04:38:30.476Z,18.80
2023-05-12T04:41:01.276Z,15.98
2023-05-12T04:46:00.390Z,18.40
2023-05-12T04:48:28.429Z,18.67
2023-05-12T04:50:56.733Z,15.27
2023-05-12T04:53:24.438Z,19.10
2023-05-12T04:55:53.845Z,17.35
2023-05-12T04:58:21.601Z,17.20
2023-05-12T05:00:49.466Z,18.75
2023-05-12T05:03:17.529Z,15.18
2023-05-12T05:05:45.861Z,16.63
2023-05-12T05:08:13.554Z,17.27
2023-05-12T05:10:41.292Z,20.60
2023-05-12T05:13:10.407Z,16.10
2023-05-12T05:15:38.153Z,16.50
2023-05-12T05:18:06.326Z,17.17
2023-05-12T05:20:34.953Z,16.80
2023-05-12T05:23:03.068Z,15.85
2023-05-12T05:25:30.800Z,17.90
2023-05-12T05:27:58.552Z,17.25
2023-05-12T05:30:27.715Z,17.05
2023-05-12T05:32:55.476Z,19.50
2023-05-12T05:35:23.269Z,16.60
2023-05-12T05:37:53.616Z,16.77
2023-05-12T05:40:21.680Z,16.45
2023-05-12T05:42:49.397Z,19.10
2023-05-12T05:45:17.334Z,15.02
2023-05-12T05:47:49.745Z,15.07
2023-05-12T05:50:17.617Z,17.10
2023-05-12T05:52:45.381Z,12.93
2023-05-12T05:55:13.197Z,13.95
2023-05-12T05:57:41.153Z,11.80
2023-05-12T06:00:10.258Z,13.07
2023-05-12T06:02:38.140Z,14.02
2023-05-12T06:05:08.132Z,13.60
2023-05-12T06:07:35.875Z,12.77
2023-05-12T06:10:04.112Z,10.85
2023-05-12T06:12:31.844Z,14.10
2023-05-12T06:14:59.545Z,10.95
2023-05-12T06:17:27.580Z,14.15
2023-05-12T06:19:55.302Z,12.75
2023-05-12T06:22:24.920Z,10.02
2023-05-12T06:24:53.300Z,12.30
2023-05-12T06:27:21.013Z,12.43
2023-05-12T06:29:48.704Z,9.45
2023-05-12T06:32:16.486Z,9.90
2023-05-12T06:34:44.298Z,13.23
2023-05-12T06:37:12.372Z,9.13
2023-05-12T06:39:41.578Z,11.55
2023-05-12T06:42:09.456Z,9.68
2023-05-12T06:44:38.482Z,7.68
2023-05-12T06:47:07.674Z,8.85
2023-05-12T06:49:37.120Z,6.00
2023-05-12T06:52:05.628Z,8.70
2023-05-12T06:54:33.584Z,6.93
2023-05-12T06:57:02.709Z,9.07
2023-05-12T06:59:30.818Z,7.82
2023-05-12T07:01:58.821Z,5.80
2023-05-12T07:04:26.840Z,5.68
2023-05-12T07:06:54.668Z,6.00
2023-05-12T07:09:22.359Z,4.90
2023-05-12T07:11:51.018Z,3.10
2023-05-12T07:14:20.118Z,4.05
2023-05-12T07:16:47.874Z,4.45
2023-05-12T07:19:15.620Z,6.53
2023-05-12T07:21:44.338Z,3.55
2023-05-12T07:24:12.251Z,4.05
2023-05-12T07:26:40.013Z,6.18
2023-05-12T07:29:13.427Z,5.55
2023-05-12T07:31:45.779Z,4.63
2023-05-12T07:34:13.536Z,2.83
2023-05-12T07:36:41.378Z,4.22
2023-05-12T07:39:09.113Z,5.47
2023-05-12T07:41:36.897Z,5.80
2023-05-12T07:44:04.714Z,4.50
2023-05-12T07:46:32.441Z,3.65
2023-05-12T07:49:01.554Z,4.20
2023-05-12T07:51:29.455Z,4.13
2023-05-12T07:53:58.031Z,3.97
2023-05-12T07:56:25.899Z,4.35
2023-05-12T07:58:53.676Z,4.13
2023-05-12T08:01:24.794Z,4.32
2023-05-12T08:03:54.813Z,7.10
2023-05-12T08:06:25.937Z,6.70
2023-05-12T08:08:58.446Z,5.32
2023-05-12T08:11:28.384Z,4.05
2023-05-12T08:13:58.037Z,5.40
2023-05-12T08:16:27.848Z,3.95
2023-05-12T08:18:57.499Z,3.58
2023-05-12T08:21:29.431Z,6.05
2023-05-12T08:23:59.163Z,5.50
2023-05-12T08:26:28.747Z,3.47
2023-05-12T08:28:58.278Z,3.95
2023-05-12T08:31:28.108Z,3.80
2023-05-12T08:34:09.166Z,4.35
2023-05-12T08:36:42.013Z,4.15
2023-05-12T08:39:12.201Z,3.00
2023-05-12T08:41:46.516Z,4.47
2023-05-12T08:44:17.836Z,5.72
2023-05-12T08:46:48.928Z,3.47
2023-05-12T08:49:22.922Z,4.22
2023-05-12T08:51:58.060Z,3.90
2023-05-12T08:54:30.492Z,3.72
2023-05-12T08:59:33.515Z,4.53
2023-05-12T09:02:04.365Z,3.83
2023-05-12T09:04:32.990Z,6.32
2023-05-12T09:07:02.224Z,6.32
2023-05-12T09:09:32.668Z,4.20
2023-05-12T09:12:01.749Z,4.63
2023-05-12T09:14:31.983Z,3.67
2023-05-12T09:17:03.794Z,4.85
2023-05-12T09:19:32.534Z,3.72
2023-05-12T09:22:01.999Z,4.80
2023-05-12T09:24:36.350Z,5.07
2023-05-12T09:27:04.890Z,6.38
2023-05-12T09:29:37.495Z,7.22
2023-05-12T09:32:10.073Z,5.57
2023-05-12T09:34:40.876Z,8.70
2023-05-12T09:37:11.854Z,5.47
2023-05-12T09:39:40.474Z,5.32
2023-05-12T09:42:13.169Z,6.45
2023-05-12T09:44:41.995Z,5.88
2023-05-12T09:47:10.720Z,4.13
2023-05-12T09:49:38.615Z,6.43
2023-05-12T09:52:06.868Z,6.88
2023-05-12T09:54:36.353Z,6.68
2023-05-12T09:57:05.725Z,5.75
2023-05-12T09:59:36.170Z,6.93
2023-05-12T10:02:07.358Z,4.10
2023-05-12T10:04:43.427Z,5.85
2023-05-12T10:07:14.053Z,6.63
2023-05-12T10:09:45.123Z,5.18
2023-05-12T10:12:13.484Z,4.47
2023-05-12T10:14:42.019Z,3.78
2023-05-12T10:17:10.962Z,3.25
2023-05-12T10:19:40.983Z,3.30
2023-05-12T10:22:10.982Z,4.60
2023-05-12T10:24:40.379Z,5.00
2023-05-12T10:27:09.628Z,3.90
2023-05-12T10:29:39.649Z,3.78
2023-05-12T10:32:07.443Z,5.07
2023-05-12T10:34:36.578Z,4.28
2023-05-12T10:37:08.172Z,4.03
2023-05-12T10:39:36.020Z,4.07
2023-05-12T10:42:07.187Z,4.80
2023-05-12T10:44:36.745Z,40.00
2023-05-12T10:47:14.024Z,11.30
2023-05-12T10:49:42.264Z,38.45
2023-05-12T10:52:12.520Z,31.58
2023-05-12T10:54:44.184Z,5.50
2023-05-12T10:57:18.880Z,5.55
2023-05-12T10:59:52.704Z,6.53
2023-05-12T11:02:27.692Z,3.97
2023-05-12T11:04:58.957Z,5.82
2023-05-12T11:07:28.131Z,4.07
2023-05-12T11:09:59.650Z,7.07
2023-05-12T11:12:32.327Z,3.60
2023-05-12T11:15:03.239Z,8.43
2023-05-12T11:17:31.662Z,7.55
2023-05-12T11:20:00.658Z,12.52
2023-05-12T11:22:28.381Z,4.22
2023-05-12T11:24:56.310Z,3.92
2023-05-12T11:27:24.358Z,3.33
2023-05-12T11:29:58.741Z,5.45
2023-05-12T11:32:28.263Z,3.38
2023-05-12T11:34:56.217Z,6.43
2023-05-12T11:37:24.193Z,3.80
2023-05-12T11:39:52.881Z,6.47
2023-05-12T11:42:22.316Z,6.18
2023-05-12T11:44:52.884Z,4.65
2023-05-12T11:47:21.250Z,2.50
2023-05-12T11:49:52.214Z,5.82
2023-05-12T11:52:22.583Z,2.88
2023-05-12T11:54:51.455Z,3.80
2023-05-12T11:57:27.673Z,3.08
2023-05-12T12:00:00.148Z,2.60
2023-05-12T12:02:28.594Z,3.80
2023-05-12T12:04:57.879Z,5.00
2023-05-12T12:07:32.421Z,5.55
2023-05-12T12:10:11.064Z,3.08
2023-05-12T12:12:38.806Z,3.25
2023-05-12T12:15:07.747Z,3.83
2023-05-12T12:17:35.565Z,3.70
2023-05-12T12:20:05.096Z,2.80
2023-05-12T12:22:34.369Z,5.60
2023-05-12T12:25:03.038Z,8.15
2023-05-12T12:27:30.808Z,2.88
2023-05-12T12:29:58.696Z,5.82
2023-05-12T12:32:27.000Z,3.33
2023-05-12T12:34:59.418Z,3.55
2023-05-12T12:37:28.560Z,2.38
2023-05-12T12:39:56.321Z,2.67
2023-05-12T12:42:24.088Z,2.55
2023-05-12T12:44:52.452Z,3.03
2023-05-12T12:47:20.356Z,3.55
2023-05-12T12:49:48.199Z,3.47
2023-05-12T12:52:16.200Z,5.13
2023-05-12T12:54:45.395Z,2.35
2023-05-12T12:57:13.235Z,4.82
2023-05-12T12:59:41.057Z,5.00
2023-05-12T13:02:09.233Z,3.25
2023-05-12T13:04:36.969Z,5.18
2023-05-12T13:07:05.797Z,3.20
2023-05-12T13:09:33.610Z,2.83
2023-05-12T13:12:03.264Z,6.35
2023-05-12T13:14:31.356Z,4.28
2023-05-12T13:16:59.288Z,2.78
2023-05-12T13:19:27.377Z,3.00
2023-05-12T13:21:55.097Z,2.15
2023-05-12T13:24:22.926Z,3.45
2023-05-12T13:26:51.492Z,2.45
2023-05-12T13:29:20.726Z,4.07
2023-05-12T13:31:48.549Z,5.07
2023-05-12T13:34:16.606Z,2.25
2023-05-12T13:36:44.330Z,5.55
2023-05-12T13:39:12.522Z,3.83
2023-05-12T13:41:40.306Z,3.33
2023-05-12T13:44:08.356Z,1.77
2023-05-12T13:46:37.519Z,1.92
2023-05-12T13:49:05.308Z,2.55
2023-05-12T13:51:33.169Z,3.70
2023-05-12T13:54:00.882Z,2.10
2023-05-12T13:56:28.578Z,2.92
2023-05-12T13:58:56.292Z,3.33
2023-05-12T14:01:24.156Z,4.20
2023-05-12T14:03:53.320Z,2.22
2023-05-12T14:06:21.095Z,2.28
2023-05-12T14:08:49.060Z,4.47
2023-05-12T14:11:16.927Z,3.80
2023-05-12T14:13:44.725Z,6.03
2023-05-12T14:16:13.858Z,3.13
2023-05-12T14:18:43.323Z,2.08
2023-05-12T14:21:12.924Z,5.65
2023-05-12T14:23:40.699Z,1.95
2023-05-12T14:26:08.495Z,3.55
2023-05-12T14:28:38.460Z,1.80
2023-05-12T14:31:06.649Z,1.60
2023-05-12T14:33:34.375Z,2.08
2023-05-12T14:36:07.537Z,4.13
2023-05-12T14:38:37.825Z,2.33
2023-05-12T14:41:07.990Z,1.20
2023-05-12T14:43:35.756Z,2.20
2023-05-12T14:46:04.380Z,2.00
2023-05-12T14:48:32.214Z,1.85
2023-05-12T14:51:00.205Z,2.45
2023-05-12T14:53:28.016Z,1.75
2023-05-12T14:55:57.168Z,0.88
2023-05-12T14:58:25.014Z,1.67
2023-05-12T15:00:52.996Z,0.82
2023-05-12T15:03:21.608Z,7.65
2023-05-12T15:08:21.315Z,3.28
2023-05-12T15:10:49.486Z,1.98
2023-05-12T15:13:20.383Z,2.00
2023-05-12T15:15:48.309Z,1.33
2023-05-12T15:18:16.180Z,0.70
2023-05-12T15:20:44.329Z,1.42
2023-05-12T15:23:12.044Z,1.40
2023-05-12T15:25:41.034Z,0.70
2023-05-12T15:28:08.868Z,1.05
2023-05-12T15:30:38.010Z,0.80
2023-05-12T15:33:06.505Z,3.30
2023-05-12T15:35:34.599Z,2.28
2023-05-12T15:38:02.337Z,1.55
2023-05-12T15:40:30.612Z,4.88
2023-05-12T15:42:58.421Z,1.80
2023-05-12T15:45:26.210Z,1.27
2023-05-12T15:47:56.226Z,0.95
2023-05-12T15:50:24.501Z,0.90
2023-05-12T15:52:52.226Z,1.25
2023-05-12T15:55:20.452Z,0.98
2023-05-12T15:57:48.304Z,0.60
2023-05-12T16:00:17.035Z,0.68
2023-05-12T16:02:44.998Z,0.82
2023-05-12T16:05:14.150Z,0.80
2023-05-12T16:07:42.394Z,0.50
2023-05-12T16:10:10.900Z,0.45
2023-05-12T16:12:38.696Z,3.08
2023-05-12T16:15:07.212Z,2.70
2023-05-12T16:17:34.987Z,2.60
2023-05-12T16:20:02.903Z,0.70
2023-05-12T16:22:31.970Z,0.47
2023-05-12T16:24:59.707Z,0.85
2023-05-12T16:27:27.485Z,1.45
2023-05-12T16:29:55.393Z,0.88
2023-05-12T16:32:23.186Z,2.50
2023-05-12T16:34:51.005Z,0.52
2023-05-12T16:37:18.785Z,1.17
2023-05-12T16:39:47.906Z,0.55
2023-05-12T16:42:15.703Z,0.80
2023-05-12T16:44:43.463Z,0.75
2023-05-12T16:47:11.268Z,1.58
2023-05-12T16:49:39.163Z,1.17
2023-05-12T16:52:07.381Z,0.77
2023-05-12T16:54:35.823Z,1.48
2023-05-12T16:57:05.130Z,0.70
2023-05-12T16:59:32.954Z,8.45
2023-05-12T17:02:01.961Z,21.17
2023-05-12T17:04:29.969Z,23.88
2023-05-12T17:06:57.907Z,17.50
2023-05-12T17:09:25.797Z,19.25
2023-05-12T17:11:53.590Z,9.30
2023-05-12T17:14:23.339Z,1.02
2023-05-12T17:16:51.537Z,3.28
2023-05-12T17:19:21.125Z,0.85
2023-05-12T17:21:49.160Z,1.08
2023-05-12T17:24:17.678Z,0.95
2023-05-12T17:26:45.799Z,0.52
2023-05-12T17:29:13.886Z,0.70
2023-05-12T17:31:43.027Z,0.60
2023-05-12T17:34:11.047Z,2.70
2023-05-12T17:36:38.821Z,1.75
2023-05-12T17:39:06.803Z,1.92
2023-05-12T17:41:34.516Z,0.90
2023-05-12T17:44:02.234Z,0.68
2023-05-12T17:46:29.979Z,0.40
2023-05-12T17:48:59.073Z,0.63
2023-05-12T17:51:26.813Z,2.67
2023-05-12T17:53:54.557Z,0.65
2023-05-12T17:56:22.328Z,0.60
2023-05-12T17:58:50.230Z,1.17
2023-05-12T18:01:18.107Z,2.22
2023-05-12T18:03:45.924Z,0.98
2023-05-12T18:06:15.620Z,8.98
2023-05-12T18:08:43.480Z,0.40
2023-05-12T18:11:11.285Z,1.23
2023-05-12T18:13:39.052Z,0.65
2023-05-12T18:16:12.798Z,0.55
2023-05-12T18:18:49.419Z,3.50
2023-05-12T18:21:18.833Z,2.28
2023-05-12T18:23:46.946Z,0.98
2023-05-12T18:26:14.696Z,1.23
2023-05-12T18:28:43.649Z,0.57
2023-05-12T18:33:42.313Z,1.10
2023-05-12T18:36:10.719Z,1.50
2023-05-12T18:38:39.923Z,0.82
2023-05-12T18:41:08.106Z,0.73
2023-05-12T18:43:36.144Z,1.00
2023-05-12T18:46:04.452Z,0.90
2023-05-12T18:48:32.981Z,0.43
2023-05-12T18:51:01.234Z,3.70
2023-05-12T18:53:29.025Z,1.58
2023-05-12T18:55:58.480Z,4.05
2023-05-12T18:58:26.264Z,0.70
2023-05-12T19:00:54.190Z,1.83
2023-05-12T19:03:21.942Z,1.20
2023-05-12T19:05:49.708Z,1.02
2023-05-12T19:08:19.792Z,1.85
2023-05-12T19:10:48.839Z,1.40
2023-05-12T19:13:17.967Z,2.58
2023-05-12T19:15:45.864Z,1.70
2023-05-12T19:18:13.924Z,1.05
2023-05-12T19:20:42.229Z,1.38
2023-05-12T19:23:10.479Z,1.13
2023-05-12T19:25:38.229Z,2.50
2023-05-12T19:28:06.588Z,0.88
2023-05-12T19:30:35.709Z,6.30
2023-05-12T19:33:03.571Z,6.80
2023-05-12T19:35:31.462Z,9.43
2023-05-12T19:37:59.323Z,1.80
2023-05-12T19:40:27.343Z,5.50
2023-05-12T19:42:55.270Z,16.25
2023-05-12T19:45:23.454Z,16.85
2023-05-12T19:47:53.039Z,7.88
2023-05-12T19:50:21.151Z,4.30
2023-05-12T19:52:49.095Z,4.32
2023-05-12T19:55:17.015Z,2.17
2023-05-12T19:57:44.844Z,4.32
2023-05-12T20:00:13.758Z,2.50
2023-05-12T20:02:42.199Z,1.83
2023-05-12T20:05:11.635Z,1.88
2023-05-12T20:07:39.937Z,1.65
2023-05-12T20:10:08.959Z,4.63
2023-05-12T20:12:36.797Z,3.20
2023-05-12T20:15:05.027Z,2.92
2023-05-12T20:17:32.822Z,9.07
2023-05-12T20:20:01.296Z,3.03
2023-05-12T20:22:30.613Z,4.43
2023-05-12T20:25:04.013Z,1.63
2023-05-12T20:27:32.012Z,1.90
2023-05-12T20:30:00.197Z,3.22
2023-05-12T20:32:27.964Z,2.78
2023-05-12T20:34:55.738Z,2.63
2023-05-12T20:37:23.505Z,3.28
2023-05-12T20:39:52.665Z,2.90
2023-05-12T20:42:20.924Z,2.30
2023-05-12T20:44:48.924Z,12.95
2023-05-12T20:47:16.759Z,10.07
2023-05-12T20:49:44.984Z,6.03
2023-05-12T20:52:12.820Z,3.95
2023-05-12T20:54:40.645Z,9.85
2023-05-12T20:57:10.180Z,3.13
2023-05-12T20:59:39.174Z,2.65
2023-05-12T21:02:07.703Z,2.53
2023-05-12T21:04:35.639Z,1.95
2023-05-12T21:07:03.415Z,2.50
2023-05-12T21:09:31.260Z,3.92
2023-05-12T21:11:59.047Z,2.38
2023-05-12T21:14:28.202Z,4.43
2023-05-12T21:16:56.095Z,1.48
2023-05-12T21:19:23.904Z,3.60
2023-05-12T21:21:51.854Z,16.33
2023-05-12T21:24:19.637Z,5.00
2023-05-12T21:26:47.985Z,1.63
2023-05-12T21:29:15.740Z,8.55
2023-05-12T21:31:44.960Z,2.63
2023-05-12T21:34:12.751Z,2.70
2023-05-12T21:36:40.497Z,2.60
2023-05-12T21:39:08.976Z,3.70
2023-05-12T21:41:38.324Z,2.20
2023-05-12T21:44:06.285Z,3.63
2023-05-12T21:46:34.638Z,5.70
2023-05-12T21:49:03.776Z,4.95
2023-05-12T21:51:32.981Z,6.53
2023-05-12T21:54:00.779Z,8.65
2023-05-12T21:56:28.558Z,3.05
2023-05-12T21:58:56.333Z,4.43
2023-05-12T22:01:24.138Z,3.15
2023-05-12T22:03:52.097Z,2.22
2023-05-12T22:06:21.307Z,3.30
2023-05-12T22:08:49.018Z,2.78
2023-05-12T22:11:17.257Z,7.00
2023-05-12T22:13:45.010Z,3.60
2023-05-12T22:16:12.867Z,2.97
2023-05-12T22:18:43.278Z,1.83
2023-05-12T22:21:11.933Z,3.90
2023-05-12T22:23:42.045Z,4.47
2023-05-12T22:26:09.860Z,3.67
2023-05-12T22:28:37.780Z,4.18
2023-05-12T22:31:05.570Z,4.22
2023-05-12T22:33:33.398Z,5.28
2023-05-12T22:36:01.276Z,2.22
2023-05-12T22:38:29.234Z,2.75
2023-05-12T22:40:58.450Z,2.40
2023-05-12T22:43:26.231Z,2.72
2023-05-12T22:45:55.731Z,2.20
2023-05-12T22:48:23.796Z,3.97
2023-05-12T22:50:54.655Z,3.25
2023-05-12T22:53:22.397Z,1.60
2023-05-12T22:55:50.296Z,2.08
2023-05-12T22:58:19.304Z,2.00
2023-05-12T23:00:47.270Z,2.72
2023-05-12T23:03:15.086Z,3.08
2023-05-12T23:05:42.811Z,4.78
2023-05-12T23:08:10.657Z,2.20
2023-05-12T23:10:38.556Z,6.03
2023-05-12T23:13:06.334Z,3.72
2023-05-12T23:15:35.628Z,3.20
2023-05-12T23:18:03.538Z,2.60
2023-05-12T23:20:31.881Z,2.80
2023-05-12T23:22:59.710Z,2.63
2023-05-12T23:25:27.474Z,3.22
2023-05-12T23:27:55.785Z,1.70
2023-05-12T23:30:23.777Z,3.38
2023-05-12T23:32:53.243Z,15.57
2023-05-12T23:35:20.949Z,3.55
2023-05-12T23:37:48.792Z,4.50
2023-05-12T23:40:16.712Z,7.13
2023-05-12T23:42:44.501Z,3.70
2023-05-12T23:45:12.773Z,4.75
2023-05-12T23:47:40.581Z,6.03
2023-05-12T23:50:10.690Z,4.00
2023-05-12T23:52:38.698Z,5.30
2023-05-12T23:55:07.450Z,4.40
2023-05-12T23:57:35.943Z,5.93
